sensor_id;sensor_type;location;lat;lon;timestamp;P1;durP1;ratioP1;P2;durP2;ratioP2
7410;SDS011;3747;48.628;9.058;2022-07-06T00:02:10;2.00;;;1.90;;
7410;SDS011;3747;48.628;9.058;2022-07-06T00:04:37;1.90;;;1.80;;
7410;SDS011;3747;48.628;9.058;2022-07-06T00:07:05;2.70;;;2.00;;
7410;SDS011;3747;48.628;9.058;2022-07-06T00:09:32;2.97;;;2.27;;
7410;SDS011;3747;48.628;9.058;2022-07-06T00:11:58;3.90;;;2.40;;
7410;SDS011;3747;48.628;9.058;2022-07-06T00:14:25;2.40;;;2.20;;
7410;SDS011;3747;48.628;9.058;2022-07-06T00:16:52;4.00;;;2.20;;
7410;SDS011;3747;48.628;9.058;2022-07-06T00:19:19;4.00;;;2.60;;
7410;SDS011;3747;48.628;9.058;2022-07-06T00:21:45;4.93;;;2.73;;
7410;SDS011;3747;48.628;9.058;2022-07-06T00:24:13;2.53;;;2.33;;
7410;SDS011;3747;48.628;9.058;2022-07-06T00:26:42;2.37;;;2.17;;
7410;SDS011;3747;48.628;9.058;2022-07-06T00:29:09;2.37;;;2.27;;
7410;SDS011;3747;48.628;9.058;2022-07-06T00:31:36;2.53;;;2.33;;
7410;SDS011;3747;48.628;9.058;2022-07-06T00:34:03;5.40;;;2.27;;
7410;SDS011;3747;48.628;9.058;2022-07-06T00:36:29;5.23;;;2.57;;
7410;SDS011;3747;48.628;9.058;2022-07-06T00:38:56;2.37;;;2.17;;
7410;SDS011;3747;48.628;9.058;2022-07-06T00:41:24;3.20;;;2.20;;
7410;SDS011;3747;48.628;9.058;2022-07-06T00:43:51;5.30;;;2.33;;
7410;SDS011;3747;48.628;9.058;2022-07-06T00:46:22;3.70;;;2.57;;
7410;SDS011;3747;48.628;9.058;2022-07-06T00:48:52;3.70;;;2.43;;
7410;SDS011;3747;48.628;9.058;2022-07-06T00:51:19;2.83;;;2.10;;
7410;SDS011;3747;48.628;9.058;2022-07-06T00:53:48;7.57;;;2.30;;
7410;SDS011;3747;48.628;9.058;2022-07-06T00:56:15;2.93;;;2.63;;
7410;SDS011;3747;48.628;9.058;2022-07-06T00:58:43;2.27;;;2.00;;
7410;SDS011;3747;48.628;9.058;2022-07-06T01:01:10;4.20;;;2.10;;
7410;SDS011;3747;48.628;9.058;2022-07-06T01:03:37;3.90;;;2.23;;
7410;SDS011;3747;48.628;9.058;2022-07-06T01:06:04;2.87;;;2.10;;
7410;SDS011;3747;48.628;9.058;2022-07-06T01:08:31;2.90;;;2.03;;
7410;SDS011;3747;48.628;9.058;2022-07-06T01:10:58;1.70;;;1.60;;
7410;SDS011;3747;48.628;9.058;2022-07-06T01:13:25;4.27;;;2.00;;
7410;SDS011;3747;48.628;9.058;2022-07-06T01:15:54;4.60;;;2.27;;
7410;SDS011;3747;48.628;9.058;2022-07-06T01:18:21;2.57;;;2.20;;
7410;SDS011;3747;48.628;9.058;2022-07-06T01:20:49;2.50;;;2.30;;
7410;SDS011;3747;48.628;9.058;2022-07-06T01:23:16;3.67;;;2.30;;
7410;SDS011;3747;48.628;9.058;2022-07-06T01:25:42;4.30;;;2.40;;
7410;SDS011;3747;48.628;9.058;2022-07-06T01:28:09;3.50;;;2.10;;
7410;SDS011;3747;48.628;9.058;2022-07-06T01:30:36;2.90;;;2.60;;
7410;SDS011;3747;48.628;9.058;2022-07-06T01:33:02;1.90;;;1.80;;
7410;SDS011;3747;48.628;9.058;2022-07-06T01:35:29;4.17;;;2.20;;
7410;SDS011;3747;48.628;9.058;2022-07-06T01:38:02;4.63;;;2.37;;
7410;SDS011;3747;48.628;9.058;2022-07-06T01:40:29;4.50;;;1.90;;
7410;SDS011;3747;48.628;9.058;2022-07-06T01:42:56;3.90;;;1.90;;
7410;SDS011;3747;48.628;9.058;2022-07-06T01:45:22;2.27;;;1.77;;
7410;SDS011;3747;48.628;9.058;2022-07-06T01:47:50;3.87;;;2.30;;
7410;SDS011;3747;48.628;9.058;2022-07-06T01:50:17;3.27;;;1.90;;
7410;SDS011;3747;48.628;9.058;2022-07-06T01:52:44;4.17;;;2.23;;
7410;SDS011;3747;48.628;9.058;2022-07-06T01:55:11;1.97;;;1.77;;
7410;SDS011;3747;48.628;9.058;2022-07-06T01:57:38;2.07;;;1.90;;
7410;SDS011;3747;48.628;9.058;2022-07-06T02:00:06;2.50;;;2.27;;
7410;SDS011;3747;48.628;9.058;2022-07-06T02:02:34;2.60;;;2.40;;
7410;SDS011;3747;48.628;9.058;2022-07-06T02:05:00;3.27;;;2.13;;
7410;SDS011;3747;48.628;9.058;2022-07-06T02:07:27;4.17;;;1.80;;
7410;SDS011;3747;48.628;9.058;2022-07-06T02:09:54;2.57;;;2.10;;
7410;SDS011;3747;48.628;9.058;2022-07-06T02:12:22;2.17;;;1.97;;
7410;SDS011;3747;48.628;9.058;2022-07-06T02:14:48;3.40;;;2.43;;
7410;SDS011;3747;48.628;9.058;2022-07-06T02:17:15;4.47;;;2.33;;
7410;SDS011;3747;48.628;9.058;2022-07-06T02:19:41;2.00;;;1.70;;
7410;SDS011;3747;48.628;9.058;2022-07-06T02:22:08;2.43;;;2.17;;
7410;SDS011;3747;48.628;9.058;2022-07-06T02:24:35;5.00;;;2.17;;
7410;SDS011;3747;48.628;9.058;2022-07-06T02:27:02;2.17;;;1.97;;
7410;SDS011;3747;48.628;9.058;2022-07-06T02:29:30;3.23;;;2.30;;
7410;SDS011;3747;48.628;9.058;2022-07-06T02:31:57;3.53;;;2.50;;
7410;SDS011;3747;48.628;9.058;2022-07-06T02:34:23;2.83;;;2.07;;
7410;SDS011;3747;48.628;9.058;2022-07-06T02:36:50;4.90;;;2.60;;
7410;SDS011;3747;48.628;9.058;2022-07-06T02:39:17;3.03;;;1.97;;
7410;SDS011;3747;48.628;9.058;2022-07-06T02:41:43;2.70;;;2.50;;
7410;SDS011;3747;48.628;9.058;2022-07-06T02:44:10;3.77;;;2.07;;
7410;SDS011;3747;48.628;9.058;2022-07-06T02:46:38;2.73;;;2.20;;
7410;SDS011;3747;48.628;9.058;2022-07-06T02:49:04;2.80;;;2.60;;
7410;SDS011;3747;48.628;9.058;2022-07-06T02:51:31;2.93;;;2.17;;
7410;SDS011;3747;48.628;9.058;2022-07-06T02:53:58;3.57;;;2.40;;
7410;SDS011;3747;48.628;9.058;2022-07-06T02:56:24;2.40;;;2.27;;
7410;SDS011;3747;48.628;9.058;2022-07-06T02:58:53;3.23;;;2.40;;
7410;SDS011;3747;48.628;9.058;2022-07-06T03:01:19;3.10;;;2.70;;
7410;SDS011;3747;48.628;9.058;2022-07-06T03:03:47;3.27;;;2.60;;
7410;SDS011;3747;48.628;9.058;2022-07-06T03:06:14;7.67;;;2.53;;
7410;SDS011;3747;48.628;9.058;2022-07-06T03:08:41;3.27;;;2.80;;
7410;SDS011;3747;48.628;9.058;2022-07-06T03:11:07;4.30;;;3.13;;
7410;SDS011;3747;48.628;9.058;2022-07-06T03:13:34;3.40;;;3.10;;
7410;SDS011;3747;48.628;9.058;2022-07-06T03:16:01;3.40;;;3.10;;
7410;SDS011;3747;48.628;9.058;2022-07-06T03:18:28;3.67;;;3.20;;
7410;SDS011;3747;48.628;9.058;2022-07-06T03:20:56;7.47;;;3.63;;
7410;SDS011;3747;48.628;9.058;2022-07-06T03:23:22;4.63;;;3.10;;
7410;SDS011;3747;48.628;9.058;2022-07-06T03:25:49;6.37;;;3.67;;
7410;SDS011;3747;48.628;9.058;2022-07-06T03:28:16;3.40;;;3.10;;
7410;SDS011;3747;48.628;9.058;2022-07-06T03:30:42;3.73;;;3.43;;
7410;SDS011;3747;48.628;9.058;2022-07-06T03:33:09;3.57;;;3.27;;
7410;SDS011;3747;48.628;9.058;2022-07-06T03:35:36;3.70;;;3.40;;
7410;SDS011;3747;48.628;9.058;2022-07-06T03:38:04;5.47;;;3.30;;
7410;SDS011;3747;48.628;9.058;2022-07-06T03:40:30;4.77;;;3.40;;
7410;SDS011;3747;48.628;9.058;2022-07-06T03:42:57;5.33;;;3.60;;
7410;SDS011;3747;48.628;9.058;2022-07-06T03:45:24;4.30;;;3.33;;
7410;SDS011;3747;48.628;9.058;2022-07-06T03:47:51;3.70;;;3.40;;
7410;SDS011;3747;48.628;9.058;2022-07-06T03:50:17;4.40;;;3.60;;
7410;SDS011;3747;48.628;9.058;2022-07-06T03:52:44;4.40;;;4.00;;
7410;SDS011;3747;48.628;9.058;2022-07-06T03:55:12;4.43;;;4.10;;
7410;SDS011;3747;48.628;9.058;2022-07-06T03:57:39;4.40;;;3.93;;
7410;SDS011;3747;48.628;9.058;2022-07-06T04:00:07;3.83;;;3.53;;
7410;SDS011;3747;48.628;9.058;2022-07-06T04:02:34;6.40;;;3.63;;
7410;SDS011;3747;48.628;9.058;2022-07-06T04:05:01;6.17;;;4.70;;
7410;SDS011;3747;48.628;9.058;2022-07-06T04:07:28;4.93;;;4.43;;
7410;SDS011;3747;48.628;9.058;2022-07-06T04:09:55;5.43;;;4.03;;
7410;SDS011;3747;48.628;9.058;2022-07-06T04:12:23;6.13;;;4.50;;
7410;SDS011;3747;48.628;9.058;2022-07-06T04:14:50;8.37;;;4.20;;
7410;SDS011;3747;48.628;9.058;2022-07-06T04:17:17;5.17;;;4.73;;
7410;SDS011;3747;48.628;9.058;2022-07-06T04:20:01;6.30;;;4.70;;
7410;SDS011;3747;48.628;9.058;2022-07-06T04:22:28;4.80;;;4.27;;
7410;SDS011;3747;48.628;9.058;2022-07-06T04:24:55;6.37;;;4.40;;
7410;SDS011;3747;48.628;9.058;2022-07-06T04:27:23;5.13;;;4.50;;
7410;SDS011;3747;48.628;9.058;2022-07-06T04:29:49;5.80;;;5.23;;
7410;SDS011;3747;48.628;9.058;2022-07-06T04:32:16;5.10;;;4.63;;
7410;SDS011;3747;48.628;9.058;2022-07-06T04:34:43;5.37;;;4.90;;
7410;SDS011;3747;48.628;9.058;2022-07-06T04:37:09;6.23;;;4.77;;
7410;SDS011;3747;48.628;9.058;2022-07-06T04:39:36;8.27;;;5.77;;
7410;SDS011;3747;48.628;9.058;2022-07-06T04:42:03;5.10;;;4.70;;
7410;SDS011;3747;48.628;9.058;2022-07-06T04:44:31;8.60;;;5.30;;
7410;SDS011;3747;48.628;9.058;2022-07-06T04:46:58;6.03;;;4.80;;
7410;SDS011;3747;48.628;9.058;2022-07-06T04:49:24;8.50;;;5.07;;
7410;SDS011;3747;48.628;9.058;2022-07-06T04:51:51;5.07;;;4.57;;
7410;SDS011;3747;48.628;9.058;2022-07-06T04:54:18;6.10;;;4.93;;
7410;SDS011;3747;48.628;9.058;2022-07-06T04:56:44;5.50;;;4.63;;
7410;SDS011;3747;48.628;9.058;2022-07-06T04:59:13;5.93;;;4.97;;
7410;SDS011;3747;48.628;9.058;2022-07-06T05:01:41;5.97;;;5.20;;
7410;SDS011;3747;48.628;9.058;2022-07-06T05:04:08;6.77;;;5.27;;
7410;SDS011;3747;48.628;9.058;2022-07-06T05:06:35;7.00;;;4.87;;
7410;SDS011;3747;48.628;9.058;2022-07-06T05:09:02;4.93;;;4.50;;
7410;SDS011;3747;48.628;9.058;2022-07-06T05:11:28;8.20;;;5.30;;
7410;SDS011;3747;48.628;9.058;2022-07-06T05:13:55;6.03;;;4.70;;
7410;SDS011;3747;48.628;9.058;2022-07-06T05:16:23;5.30;;;4.80;;
7410;SDS011;3747;48.628;9.058;2022-07-06T05:18:51;4.87;;;4.40;;
7410;SDS011;3747;48.628;9.058;2022-07-06T05:21:18;6.10;;;4.53;;
7410;SDS011;3747;48.628;9.058;2022-07-06T05:23:46;6.63;;;4.50;;
7410;SDS011;3747;48.628;9.058;2022-07-06T05:26:13;5.47;;;4.80;;
7410;SDS011;3747;48.628;9.058;2022-07-06T05:28:40;6.20;;;4.90;;
7410;SDS011;3747;48.628;9.058;2022-07-06T05:31:07;7.20;;;4.70;;
7410;SDS011;3747;48.628;9.058;2022-07-06T05:33:34;6.03;;;4.07;;
7410;SDS011;3747;48.628;9.058;2022-07-06T05:36:02;6.80;;;4.80;;
7410;SDS011;3747;48.628;9.058;2022-07-06T05:38:29;4.57;;;4.17;;
7410;SDS011;3747;48.628;9.058;2022-07-06T05:40:56;6.90;;;4.20;;
7410;SDS011;3747;48.628;9.058;2022-07-06T05:43:22;14.43;;;4.80;;
7410;SDS011;3747;48.628;9.058;2022-07-06T05:45:49;5.03;;;4.30;;
7410;SDS011;3747;48.628;9.058;2022-07-06T05:48:16;7.67;;;3.93;;
7410;SDS011;3747;48.628;9.058;2022-07-06T05:51:02;3.87;;;3.57;;
7410;SDS011;3747;48.628;9.058;2022-07-06T05:53:29;4.17;;;3.77;;
7410;SDS011;3747;48.628;9.058;2022-07-06T05:55:55;6.20;;;3.97;;
7410;SDS011;3747;48.628;9.058;2022-07-06T05:58:22;10.23;;;4.93;;
7410;SDS011;3747;48.628;9.058;2022-07-06T06:00:50;4.00;;;3.60;;
7410;SDS011;3747;48.628;9.058;2022-07-06T06:03:16;4.13;;;3.83;;
7410;SDS011;3747;48.628;9.058;2022-07-06T06:05:45;4.50;;;4.10;;
7410;SDS011;3747;48.628;9.058;2022-07-06T06:08:13;6.30;;;3.53;;
7410;SDS011;3747;48.628;9.058;2022-07-06T06:10:40;3.50;;;3.20;;
7410;SDS011;3747;48.628;9.058;2022-07-06T06:13:07;4.07;;;3.30;;
7410;SDS011;3747;48.628;9.058;2022-07-06T06:15:34;3.87;;;3.43;;
7410;SDS011;3747;48.628;9.058;2022-07-06T06:18:01;5.93;;;3.30;;
7410;SDS011;3747;48.628;9.058;2022-07-06T06:20:29;4.47;;;2.87;;
7410;SDS011;3747;48.628;9.058;2022-07-06T06:22:57;3.50;;;3.20;;
7410;SDS011;3747;48.628;9.058;2022-07-06T06:25:28;3.23;;;2.90;;
7410;SDS011;3747;48.628;9.058;2022-07-06T06:27:56;3.47;;;3.00;;
7410;SDS011;3747;48.628;9.058;2022-07-06T06:30:23;5.50;;;3.00;;
7410;SDS011;3747;48.628;9.058;2022-07-06T06:32:50;3.33;;;3.03;;
7410;SDS011;3747;48.628;9.058;2022-07-06T06:35:16;3.13;;;2.93;;
7410;SDS011;3747;48.628;9.058;2022-07-06T06:37:43;3.97;;;2.90;;
7410;SDS011;3747;48.628;9.058;2022-07-06T06:40:10;2.93;;;2.73;;
7410;SDS011;3747;48.628;9.058;2022-07-06T06:42:38;4.40;;;3.10;;
7410;SDS011;3747;48.628;9.058;2022-07-06T06:45:05;3.23;;;3.03;;
7410;SDS011;3747;48.628;9.058;2022-07-06T06:47:33;4.50;;;2.83;;
7410;SDS011;3747;48.628;9.058;2022-07-06T06:49:59;4.23;;;3.00;;
7410;SDS011;3747;48.628;9.058;2022-07-06T06:52:26;4.37;;;2.73;;
7410;SDS011;3747;48.628;9.058;2022-07-06T06:54:53;4.20;;;2.90;;
7410;SDS011;3747;48.628;9.058;2022-07-06T06:57:19;5.43;;;3.00;;
7410;SDS011;3747;48.628;9.058;2022-07-06T06:59:47;3.90;;;3.03;;
7410;SDS011;3747;48.628;9.058;2022-07-06T07:02:14;3.23;;;2.60;;
7410;SDS011;3747;48.628;9.058;2022-07-06T07:04:41;3.93;;;2.83;;
7410;SDS011;3747;48.628;9.058;2022-07-06T07:07:07;2.77;;;2.40;;
7410;SDS011;3747;48.628;9.058;2022-07-06T07:09:35;5.07;;;2.80;;
7410;SDS011;3747;48.628;9.058;2022-07-06T07:12:01;3.63;;;2.20;;
7410;SDS011;3747;48.628;9.058;2022-07-06T07:14:28;3.03;;;2.30;;
7410;SDS011;3747;48.628;9.058;2022-07-06T07:16:56;2.40;;;2.20;;
7410;SDS011;3747;48.628;9.058;2022-07-06T07:19:24;3.53;;;2.30;;
7410;SDS011;3747;48.628;9.058;2022-07-06T07:21:50;2.20;;;2.00;;
7410;SDS011;3747;48.628;9.058;2022-07-06T07:24:17;3.77;;;2.43;;
7410;SDS011;3747;48.628;9.058;2022-07-06T07:26:44;4.43;;;2.53;;
7410;SDS011;3747;48.628;9.058;2022-07-06T07:29:10;2.93;;;2.63;;
7410;SDS011;3747;48.628;9.058;2022-07-06T07:31:37;4.37;;;2.40;;
7410;SDS011;3747;48.628;9.058;2022-07-06T07:34:05;3.87;;;1.90;;
7410;SDS011;3747;48.628;9.058;2022-07-06T07:36:32;5.03;;;2.13;;
7410;SDS011;3747;48.628;9.058;2022-07-06T07:39:06;3.33;;;2.20;;
7410;SDS011;3747;48.628;9.058;2022-07-06T07:41:32;2.50;;;2.30;;
7410;SDS011;3747;48.628;9.058;2022-07-06T07:43:59;3.47;;;2.40;;
7410;SDS011;3747;48.628;9.058;2022-07-06T07:46:26;2.63;;;2.10;;
7410;SDS011;3747;48.628;9.058;2022-07-06T07:48:53;2.57;;;1.90;;
7410;SDS011;3747;48.628;9.058;2022-07-06T07:51:21;6.63;;;3.30;;
7410;SDS011;3747;48.628;9.058;2022-07-06T07:53:48;2.90;;;1.90;;
7410;SDS011;3747;48.628;9.058;2022-07-06T07:56:14;5.50;;;2.07;;
7410;SDS011;3747;48.628;9.058;2022-07-06T07:58:41;3.77;;;2.27;;
7410;SDS011;3747;48.628;9.058;2022-07-06T08:01:08;3.63;;;2.37;;
7410;SDS011;3747;48.628;9.058;2022-07-06T08:03:34;2.63;;;2.37;;
7410;SDS011;3747;48.628;9.058;2022-07-06T08:09:06;2.90;;;1.90;;
7410;SDS011;3747;48.628;9.058;2022-07-06T08:11:42;3.37;;;1.80;;
7410;SDS011;3747;48.628;9.058;2022-07-06T08:14:09;5.67;;;2.10;;
7410;SDS011;3747;48.628;9.058;2022-07-06T08:16:36;3.53;;;2.20;;
7410;SDS011;3747;48.628;9.058;2022-07-06T08:19:03;3.30;;;1.90;;
7410;SDS011;3747;48.628;9.058;2022-07-06T08:21:30;3.87;;;2.43;;
7410;SDS011;3747;48.628;9.058;2022-07-06T08:23:56;2.80;;;1.93;;
7410;SDS011;3747;48.628;9.058;2022-07-06T08:29:04;2.50;;;2.13;;
7410;SDS011;3747;48.628;9.058;2022-07-06T08:31:30;2.70;;;1.80;;
7410;SDS011;3747;48.628;9.058;2022-07-06T08:33:59;3.83;;;1.77;;
7410;SDS011;3747;48.628;9.058;2022-07-06T08:36:26;3.37;;;1.80;;
7410;SDS011;3747;48.628;9.058;2022-07-06T08:38:52;3.50;;;1.90;;
7410;SDS011;3747;48.628;9.058;2022-07-06T08:41:26;2.20;;;2.00;;
7410;SDS011;3747;48.628;9.058;2022-07-06T08:44:04;2.33;;;2.00;;
7410;SDS011;3747;48.628;9.058;2022-07-06T08:46:32;3.70;;;2.00;;
7410;SDS011;3747;48.628;9.058;2022-07-06T08:48:59;2.33;;;1.90;;
7410;SDS011;3747;48.628;9.058;2022-07-06T08:51:26;2.70;;;2.13;;
7410;SDS011;3747;48.628;9.058;2022-07-06T08:53:53;2.60;;;1.80;;
7410;SDS011;3747;48.628;9.058;2022-07-06T08:56:22;3.83;;;2.03;;
7410;SDS011;3747;48.628;9.058;2022-07-06T08:58:49;1.83;;;1.73;;
7410;SDS011;3747;48.628;9.058;2022-07-06T09:01:18;4.10;;;2.07;;
7410;SDS011;3747;48.628;9.058;2022-07-06T09:03:45;4.03;;;1.97;;
7410;SDS011;3747;48.628;9.058;2022-07-06T09:06:15;3.07;;;1.80;;
7410;SDS011;3747;48.628;9.058;2022-07-06T09:08:45;2.77;;;2.17;;
7410;SDS011;3747;48.628;9.058;2022-07-06T09:11:14;2.17;;;2.00;;
7410;SDS011;3747;48.628;9.058;2022-07-06T09:13:40;2.43;;;2.13;;
7410;SDS011;3747;48.628;9.058;2022-07-06T09:16:10;5.33;;;2.00;;
7410;SDS011;3747;48.628;9.058;2022-07-06T09:18:39;2.83;;;1.93;;
7410;SDS011;3747;48.628;9.058;2022-07-06T09:21:09;1.80;;;1.57;;
7410;SDS011;3747;48.628;9.058;2022-07-06T09:23:36;3.07;;;1.90;;
7410;SDS011;3747;48.628;9.058;2022-07-06T09:26:04;5.93;;;2.40;;
7410;SDS011;3747;48.628;9.058;2022-07-06T09:28:40;2.30;;;2.17;;
7410;SDS011;3747;48.628;9.058;2022-07-06T09:31:07;2.27;;;1.97;;
7410;SDS011;3747;48.628;9.058;2022-07-06T09:33:35;5.67;;;2.10;;
7410;SDS011;3747;48.628;9.058;2022-07-06T09:36:03;2.37;;;2.17;;
7410;SDS011;3747;48.628;9.058;2022-07-06T09:38:31;2.53;;;2.20;;
7410;SDS011;3747;48.628;9.058;2022-07-06T09:41:16;2.20;;;1.60;;
7410;SDS011;3747;48.628;9.058;2022-07-06T09:43:57;2.73;;;2.20;;
7410;SDS011;3747;48.628;9.058;2022-07-06T09:46:24;2.83;;;1.90;;
7410;SDS011;3747;48.628;9.058;2022-07-06T09:48:51;1.67;;;1.57;;
7410;SDS011;3747;48.628;9.058;2022-07-06T09:51:20;3.50;;;2.00;;
7410;SDS011;3747;48.628;9.058;2022-07-06T09:53:50;4.03;;;1.70;;
7410;SDS011;3747;48.628;9.058;2022-07-06T09:56:18;9.80;;;2.47;;
7410;SDS011;3747;48.628;9.058;2022-07-06T09:58:45;4.57;;;1.80;;
7410;SDS011;3747;48.628;9.058;2022-07-06T10:01:25;5.10;;;2.03;;
7410;SDS011;3747;48.628;9.058;2022-07-06T10:03:52;2.90;;;1.87;;
7410;SDS011;3747;48.628;9.058;2022-07-06T10:06:20;3.20;;;1.90;;
7410;SDS011;3747;48.628;9.058;2022-07-06T10:08:48;3.83;;;2.00;;
7410;SDS011;3747;48.628;9.058;2022-07-06T10:11:15;3.70;;;2.00;;
7410;SDS011;3747;48.628;9.058;2022-07-06T10:16:23;2.90;;;2.03;;
7410;SDS011;3747;48.628;9.058;2022-07-06T10:18:50;3.57;;;2.00;;
7410;SDS011;3747;48.628;9.058;2022-07-06T10:21:20;11.77;;;3.37;;
7410;SDS011;3747;48.628;9.058;2022-07-06T10:23:48;7.20;;;2.27;;
7410;SDS011;3747;48.628;9.058;2022-07-06T10:26:16;2.90;;;2.67;;
7410;SDS011;3747;48.628;9.058;2022-07-06T10:28:43;5.20;;;2.27;;
7410;SDS011;3747;48.628;9.058;2022-07-06T10:31:12;3.13;;;2.10;;
7410;SDS011;3747;48.628;9.058;2022-07-06T10:33:40;3.27;;;2.30;;
7410;SDS011;3747;48.628;9.058;2022-07-06T10:36:08;4.87;;;2.60;;
7410;SDS011;3747;48.628;9.058;2022-07-06T10:38:36;2.67;;;2.47;;
7410;SDS011;3747;48.628;9.058;2022-07-06T10:41:04;3.63;;;2.50;;
7410;SDS011;3747;48.628;9.058;2022-07-06T10:43:32;3.67;;;2.70;;
7410;SDS011;3747;48.628;9.058;2022-07-06T10:46:04;2.37;;;1.97;;
7410;SDS011;3747;48.628;9.058;2022-07-06T10:48:35;4.67;;;2.40;;
7410;SDS011;3747;48.628;9.058;2022-07-06T10:51:03;3.80;;;2.10;;
7410;SDS011;3747;48.628;9.058;2022-07-06T10:53:31;5.90;;;2.67;;
7410;SDS011;3747;48.628;9.058;2022-07-06T10:56:02;2.73;;;2.33;;
7410;SDS011;3747;48.628;9.058;2022-07-06T10:58:37;3.20;;;2.10;;
7410;SDS011;3747;48.628;9.058;2022-07-06T11:01:11;3.10;;;2.20;;
7410;SDS011;3747;48.628;9.058;2022-07-06T11:06:31;3.40;;;2.50;;
7410;SDS011;3747;48.628;9.058;2022-07-06T11:08:59;3.40;;;2.10;;
7410;SDS011;3747;48.628;9.058;2022-07-06T11:11:39;4.50;;;2.70;;
7410;SDS011;3747;48.628;9.058;2022-07-06T11:14:07;2.93;;;2.53;;
7410;SDS011;3747;48.628;9.058;2022-07-06T11:16:36;3.10;;;2.73;;
7410;SDS011;3747;48.628;9.058;2022-07-06T11:19:05;2.80;;;2.53;;
7410;SDS011;3747;48.628;9.058;2022-07-06T11:21:35;6.73;;;2.53;;
7410;SDS011;3747;48.628;9.058;2022-07-06T11:24:04;4.87;;;2.70;;
7410;SDS011;3747;48.628;9.058;2022-07-06T11:26:33;3.47;;;2.20;;
7410;SDS011;3747;48.628;9.058;2022-07-06T11:29:04;3.57;;;2.50;;
7410;SDS011;3747;48.628;9.058;2022-07-06T11:31:35;3.90;;;2.50;;
7410;SDS011;3747;48.628;9.058;2022-07-06T11:34:04;4.73;;;2.60;;
7410;SDS011;3747;48.628;9.058;2022-07-06T11:36:31;4.20;;;2.40;;
7410;SDS011;3747;48.628;9.058;2022-07-06T11:38:58;3.37;;;2.50;;
7410;SDS011;3747;48.628;9.058;2022-07-06T11:41:25;6.87;;;2.70;;
7410;SDS011;3747;48.628;9.058;2022-07-06T11:43:52;3.03;;;2.40;;
7410;SDS011;3747;48.628;9.058;2022-07-06T11:46:24;3.47;;;3.03;;
7410;SDS011;3747;48.628;9.058;2022-07-06T11:48:53;4.00;;;3.60;;
7410;SDS011;3747;48.628;9.058;2022-07-06T11:51:22;3.17;;;2.93;;
7410;SDS011;3747;48.628;9.058;2022-07-06T11:53:50;6.17;;;3.47;;
7410;SDS011;3747;48.628;9.058;2022-07-06T11:56:18;7.70;;;2.80;;
7410;SDS011;3747;48.628;9.058;2022-07-06T11:58:46;4.30;;;2.93;;
7410;SDS011;3747;48.628;9.058;2022-07-06T12:01:15;4.03;;;3.03;;
7410;SDS011;3747;48.628;9.058;2022-07-06T12:03:43;6.60;;;3.07;;
7410;SDS011;3747;48.628;9.058;2022-07-06T12:06:15;4.87;;;3.00;;
7410;SDS011;3747;48.628;9.058;2022-07-06T12:08:44;5.63;;;2.80;;
7410;SDS011;3747;48.628;9.058;2022-07-06T12:11:22;3.87;;;2.90;;
7410;SDS011;3747;48.628;9.058;2022-07-06T12:13:50;5.07;;;3.13;;
7410;SDS011;3747;48.628;9.058;2022-07-06T12:16:17;4.83;;;3.10;;
7410;SDS011;3747;48.628;9.058;2022-07-06T12:18:47;5.27;;;2.90;;
7410;SDS011;3747;48.628;9.058;2022-07-06T12:21:19;3.53;;;2.50;;
7410;SDS011;3747;48.628;9.058;2022-07-06T12:23:47;5.23;;;2.70;;
7410;SDS011;3747;48.628;9.058;2022-07-06T12:26:15;3.93;;;2.80;;
7410;SDS011;3747;48.628;9.058;2022-07-06T12:28:43;3.20;;;2.90;;
7410;SDS011;3747;48.628;9.058;2022-07-06T12:31:10;6.60;;;3.33;;
7410;SDS011;3747;48.628;9.058;2022-07-06T12:33:38;3.87;;;2.73;;
7410;SDS011;3747;48.628;9.058;2022-07-06T12:36:09;4.53;;;3.33;;
7410;SDS011;3747;48.628;9.058;2022-07-06T12:38:43;3.73;;;2.23;;
7410;SDS011;3747;48.628;9.058;2022-07-06T12:41:24;2.90;;;2.60;;
7410;SDS011;3747;48.628;9.058;2022-07-06T12:44:01;3.00;;;2.30;;
7410;SDS011;3747;48.628;9.058;2022-07-06T12:46:30;5.87;;;2.93;;
7410;SDS011;3747;48.628;9.058;2022-07-06T12:48:59;2.87;;;2.67;;
7410;SDS011;3747;48.628;9.058;2022-07-06T12:51:40;6.97;;;3.27;;
7410;SDS011;3747;48.628;9.058;2022-07-06T12:54:18;6.97;;;2.87;;
7410;SDS011;3747;48.628;9.058;2022-07-06T12:56:58;5.67;;;2.77;;
7410;SDS011;3747;48.628;9.058;2022-07-06T12:59:27;3.27;;;2.90;;
7410;SDS011;3747;48.628;9.058;2022-07-06T13:01:54;4.00;;;2.73;;
7410;SDS011;3747;48.628;9.058;2022-07-06T13:04:22;5.43;;;2.70;;
7410;SDS011;3747;48.628;9.058;2022-07-06T13:06:51;5.07;;;2.53;;
7410;SDS011;3747;48.628;9.058;2022-07-06T13:09:17;3.13;;;2.43;;
7410;SDS011;3747;48.628;9.058;2022-07-06T13:11:44;3.23;;;2.60;;
7410;SDS011;3747;48.628;9.058;2022-07-06T13:14:11;5.33;;;2.70;;
7410;SDS011;3747;48.628;9.058;2022-07-06T13:16:38;4.50;;;2.80;;
7410;SDS011;3747;48.628;9.058;2022-07-06T13:19:05;2.83;;;2.53;;
7410;SDS011;3747;48.628;9.058;2022-07-06T13:21:32;3.03;;;2.50;;
7410;SDS011;3747;48.628;9.058;2022-07-06T13:24:00;3.20;;;2.53;;
7410;SDS011;3747;48.628;9.058;2022-07-06T13:26:27;4.67;;;2.40;;
7410;SDS011;3747;48.628;9.058;2022-07-06T13:28:54;3.93;;;2.27;;
7410;SDS011;3747;48.628;9.058;2022-07-06T13:31:22;3.07;;;2.10;;
7410;SDS011;3747;48.628;9.058;2022-07-06T13:33:48;6.63;;;2.70;;
7410;SDS011;3747;48.628;9.058;2022-07-06T13:36:15;4.43;;;2.33;;
7410;SDS011;3747;48.628;9.058;2022-07-06T13:38:42;4.53;;;2.53;;
7410;SDS011;3747;48.628;9.058;2022-07-06T13:41:11;2.57;;;2.37;;
7410;SDS011;3747;48.628;9.058;2022-07-06T13:43:37;4.77;;;3.20;;
7410;SDS011;3747;48.628;9.058;2022-07-06T13:46:04;5.70;;;3.03;;
7410;SDS011;3747;48.628;9.058;2022-07-06T13:48:33;2.50;;;2.30;;
7410;SDS011;3747;48.628;9.058;2022-07-06T13:51:00;5.57;;;2.60;;
7410;SDS011;3747;48.628;9.058;2022-07-06T13:53:27;3.73;;;2.17;;
7410;SDS011;3747;48.628;9.058;2022-07-06T13:55:54;2.60;;;2.33;;
7410;SDS011;3747;48.628;9.058;2022-07-06T13:58:22;3.50;;;2.33;;
7410;SDS011;3747;48.628;9.058;2022-07-06T14:00:49;6.00;;;2.20;;
7410;SDS011;3747;48.628;9.058;2022-07-06T14:03:15;4.90;;;2.50;;
7410;SDS011;3747;48.628;9.058;2022-07-06T14:05:42;4.30;;;2.30;;
7410;SDS011;3747;48.628;9.058;2022-07-06T14:08:09;4.13;;;2.33;;
7410;SDS011;3747;48.628;9.058;2022-07-06T14:10:36;4.30;;;2.20;;
7410;SDS011;3747;48.628;9.058;2022-07-06T14:13:03;4.83;;;2.43;;
7410;SDS011;3747;48.628;9.058;2022-07-06T14:15:31;2.90;;;2.10;;
7410;SDS011;3747;48.628;9.058;2022-07-06T14:17:59;3.70;;;1.80;;
7410;SDS011;3747;48.628;9.058;2022-07-06T14:20:25;2.23;;;2.00;;
7410;SDS011;3747;48.628;9.058;2022-07-06T14:22:52;4.00;;;2.00;;
7410;SDS011;3747;48.628;9.058;2022-07-06T14:25:19;2.30;;;1.93;;
7410;SDS011;3747;48.628;9.058;2022-07-06T14:27:45;4.17;;;1.97;;
7410;SDS011;3747;48.628;9.058;2022-07-06T14:30:12;3.07;;;1.90;;
7410;SDS011;3747;48.628;9.058;2022-07-06T14:32:40;1.83;;;1.60;;
7410;SDS011;3747;48.628;9.058;2022-07-06T14:35:08;2.03;;;1.90;;
7410;SDS011;3747;48.628;9.058;2022-07-06T14:37:35;2.00;;;1.80;;
7410;SDS011;3747;48.628;9.058;2022-07-06T14:40:02;1.90;;;1.67;;
7410;SDS011;3747;48.628;9.058;2022-07-06T14:42:29;4.17;;;1.93;;
7410;SDS011;3747;48.628;9.058;2022-07-06T14:44:57;2.40;;;1.73;;
7410;SDS011;3747;48.628;9.058;2022-07-06T14:47:24;4.63;;;1.80;;
7410;SDS011;3747;48.628;9.058;2022-07-06T14:49:52;4.23;;;1.50;;
7410;SDS011;3747;48.628;9.058;2022-07-06T14:52:19;2.93;;;1.93;;
7410;SDS011;3747;48.628;9.058;2022-07-06T14:54:46;2.43;;;1.80;;
7410;SDS011;3747;48.628;9.058;2022-07-06T14:57:12;4.50;;;1.60;;
7410;SDS011;3747;48.628;9.058;2022-07-06T14:59:39;2.87;;;1.70;;
7410;SDS011;3747;48.628;9.058;2022-07-06T15:02:06;2.17;;;2.07;;
7410;SDS011;3747;48.628;9.058;2022-07-06T15:04:36;1.60;;;1.50;;
7410;SDS011;3747;48.628;9.058;2022-07-06T15:07:04;3.07;;;1.50;;
7410;SDS011;3747;48.628;9.058;2022-07-06T15:09:30;4.43;;;1.77;;
7410;SDS011;3747;48.628;9.058;2022-07-06T15:11:57;2.57;;;1.63;;
7410;SDS011;3747;48.628;9.058;2022-07-06T15:14:24;2.23;;;1.63;;
7410;SDS011;3747;48.628;9.058;2022-07-06T15:16:51;6.77;;;1.80;;
7410;SDS011;3747;48.628;9.058;2022-07-06T15:19:18;3.33;;;1.80;;
7410;SDS011;3747;48.628;9.058;2022-07-06T15:21:45;1.70;;;1.40;;
7410;SDS011;3747;48.628;9.058;2022-07-06T15:24:13;3.23;;;1.67;;
7410;SDS011;3747;48.628;9.058;2022-07-06T15:26:40;1.83;;;1.70;;
7410;SDS011;3747;48.628;9.058;2022-07-06T15:29:07;3.10;;;1.50;;
7410;SDS011;3747;48.628;9.058;2022-07-06T15:31:42;4.17;;;1.50;;